TimeMST,TemperatureF,Dew PointF,Humidity,Sea Level PressureIn,VisibilityMPH,Wind Direction,Wind SpeedMPH,Gust SpeedMPH,PrecipitationIn,Events,Conditions,WindDirDegrees,DateUTC
12:28 AM,46.4,15.8,29,30.15,10.0,SSE,6.9,-,N/A,,Scattered Clouds,150,2014-01-20 07:28:00
12:38 AM,46.4,15.8,29,30.14,10.0,SSE,6.9,-,N/A,,Mostly Cloudy,150,2014-01-20 07:38:00
12:48 AM,46.4,15.8,29,30.14,10.0,SSE,8.1,-,N/A,,Overcast,160,2014-01-20 07:48:00
12:53 AM,46.4,15.8,29,30.15,9.0,SSE,6.9,-,N/A,,Overcast,150,2014-01-20 07:53:00
12:58 AM,46.8,16.3,30,30.07,9.0,SSE,6.9,-,N/A,,Overcast,150,2014-01-20 07:58:00
1:03 AM,46.4,15.8,29,30.14,10.0,SSE,6.9,-,N/A,,Overcast,150,2014-01-20 08:03:00
1:33 AM,46.4,15.8,29,30.14,9.0,SSE,6.9,-,N/A,,Partly Cloudy,160,2014-01-20 08:33:00
1:48 AM,46.4,15.8,29,30.14,10.0,SSE,6.9,-,N/A,,Clear,150,2014-01-20 08:48:00
1:58 AM,45.9,16.2,30,30.07,10.0,SSE,8.1,-,N/A,,Clear,150,2014-01-20 08:58:00
2:58 AM,44.8,16.0,31,30.08,10.0,SSE,5.8,-,N/A,,Clear,150,2014-01-20 09:58:00
3:28 AM,46.4,15.8,29,30.15,9.0,SSE,8.1,-,N/A,,Clear,160,2014-01-20 10:28:00
3:58 AM,45.7,15.3,30,30.08,9.0,SSE,8.1,-,N/A,,Clear,150,2014-01-20 10:58:00
4:58 AM,43.7,15.4,32,30.08,10.0,South,8.1,-,N/A,,Clear,170,2014-01-20 11:58:00
5:38 AM,42.8,15.8,34,30.15,10.0,SSE,9.2,-,N/A,,Clear,160,2014-01-20 12:38:00
5:48 AM,42.8,15.8,34,30.15,9.0,SSE,8.1,-,N/A,,Clear,150,2014-01-20 12:48:00
5:53 AM,42.8,15.8,34,30.15,10.0,SSE,8.1,-,N/A,,Clear,150,2014-01-20 12:53:00
5:58 AM,42.3,16.0,35,30.10,10.0,SSE,6.9,-,N/A,,Clear,150,2014-01-20 12:58:00
6:23 AM,41.0,15.8,36,30.16,9.0,SSE,6.9,-,N/A,,Clear,150,2014-01-20 13:23:00
6:58 AM,44.1,15.4,32,30.13,9.0,SSE,8.1,-,N/A,,Clear,150,2014-01-20 13:58:00
7:08 AM,44.6,15.8,31,30.17,10.0,SE,10.4,-,N/A,,Clear,140,2014-01-20 14:08:00
7:58 AM,45.9,15.6,30,30.14,10.0,SE,10.4,-,N/A,,Clear,130,2014-01-20 14:58:00
8:58 AM,52.2,17.1,25,30.14,10.0,SE,10.4,-,N/A,,Clear,130,2014-01-20 15:58:00
9:58 AM,60.1,18.3,20,30.15,10.0,ESE,6.9,-,N/A,,Clear,120,2014-01-20 16:58:00
10:58 AM,65.7,18.3,16,30.14,10.0,Calm,Calm,-,N/A,,Clear,0,2014-01-20 17:58:00
11:58 AM,68.7,18.3,15,30.13,10.0,Calm,Calm,-,N/A,,Clear,0,2014-01-20 18:58:00
12:58 PM,70.5,19.4,14,30.08,10.0,WNW,2.3,-,N/A,,Clear,300,2014-01-20 19:58:00
1:58 PM,73.6,14.0,10,30.06,10.0,WNW,5.8,-,N/A,,Clear,290,2014-01-20 20:58:00
2:58 PM,74.3,14.7,10,30.05,10.0,WNW,5.8,-,N/A,,Clear,290,2014-01-20 21:58:00
3:58 PM,74.5,14.9,10,30.05,10.0,NW,6.9,-,N/A,,Clear,320,2014-01-20 22:58:00
4:58 PM,72.3,16.5,12,30.07,10.0,NW,9.2,-,N/A,,Clear,320,2014-01-20 23:58:00
5:58 PM,66.0,18.9,16,30.10,10.0,NW,6.9,-,N/A,,Clear,310,2014-01-21 00:58:00
6:58 PM,63.1,19.2,18,30.12,10.0,West,3.5,-,N/A,,Clear,280,2014-01-21 01:58:00
7:58 PM,62.6,21.4,21,30.13,10.0,Calm,Calm,-,N/A,,Clear,0,2014-01-21 02:58:00
8:58 PM,55.8,21.6,27,30.15,10.0,Calm,Calm,-,N/A,,Clear,0,2014-01-21 03:58:00
9:58 PM,50.4,22.1,33,30.17,10.0,South,5.8,-,N/A,,Clear,180,2014-01-21 04:58:00
10:58 PM,47.8,19.4,32,30.19,10.0,ESE,6.9,-,N/A,,Clear,120,2014-01-21 05:58:00
11:58 PM,47.3,18.1,31,30.18,10.0,ESE,5.8,-,N/A,,Clear,120,2014-01-21 06:58:00